createdAt,value
2019-01-20T00:02:15.624Z,4.92
2019-01-20T00:04:51.325Z,6.60
2019-01-20T00:07:27.152Z,5.55
2019-01-20T00:10:06.265Z,5.50
2019-01-20T00:12:42.368Z,5.03
2019-01-20T00:15:19.319Z,6.53
2019-01-20T00:17:56.555Z,6.15
2019-01-20T00:20:32.955Z,5.80
2019-01-20T00:23:09.232Z,5.28
2019-01-20T00:25:45.757Z,5.05
2019-01-20T00:28:21.985Z,5.37
2019-01-20T00:30:58.409Z,5.25
2019-01-20T00:33:35.110Z,4.30
2019-01-20T00:36:11.557Z,6.67
2019-01-20T00:38:48.358Z,5.10
2019-01-20T00:41:24.589Z,5.30
2019-01-20T00:44:00.815Z,5.00
2019-01-20T00:46:36.624Z,4.78
2019-01-20T00:49:13.359Z,5.47
2019-01-20T00:51:49.368Z,6.90
2019-01-20T00:54:25.092Z,5.62
2019-01-20T00:57:01.405Z,6.28
2019-01-20T00:59:38.229Z,5.17
2019-01-20T01:02:14.532Z,6.87
2019-01-20T01:04:50.275Z,4.67
2019-01-20T01:07:26.696Z,5.60
2019-01-20T01:10:03.183Z,5.00
2019-01-20T01:12:40.393Z,4.75
2019-01-20T01:15:24.272Z,5.83
2019-01-20T01:18:00.117Z,5.05
2019-01-20T01:20:36.117Z,6.00
2019-01-20T01:23:12.001Z,5.75
2019-01-20T01:25:48.125Z,4.50
2019-01-20T01:28:24.732Z,5.55
2019-01-20T01:31:01.388Z,4.67
2019-01-20T01:33:37.351Z,5.15
2019-01-20T01:36:13.741Z,6.45
2019-01-20T01:38:51.112Z,5.53
2019-01-20T01:41:28.373Z,3.80
2019-01-20T01:44:05.070Z,5.47
2019-01-20T01:46:41.197Z,5.97
2019-01-20T01:49:17.088Z,6.65
2019-01-20T01:51:53.464Z,4.78
2019-01-20T01:54:30.277Z,4.10
2019-01-20T01:57:06.128Z,4.72
2019-01-20T01:59:41.889Z,4.80
2019-01-20T02:02:17.830Z,6.08
2019-01-20T02:04:53.725Z,5.03
2019-01-20T02:07:30.713Z,5.87
2019-01-20T02:10:09.779Z,6.60
2019-01-20T02:12:46.580Z,4.75
2019-01-20T02:15:23.280Z,4.20
2019-01-20T02:17:59.222Z,4.95
2019-01-20T02:20:35.581Z,5.40
2019-01-20T02:23:12.151Z,4.78
2019-01-20T02:25:48.122Z,6.90
2019-01-20T02:28:25.100Z,5.40
2019-01-20T02:31:01.651Z,4.33
2019-01-20T02:33:37.337Z,5.35
2019-01-20T02:36:13.933Z,5.28
2019-01-20T02:38:50.703Z,5.37
2019-01-20T02:41:27.756Z,5.17
2019-01-20T02:44:04.574Z,6.25
2019-01-20T02:46:41.297Z,4.85
2019-01-20T02:49:17.436Z,4.87
2019-01-20T02:51:55.346Z,5.22
2019-01-20T02:54:31.884Z,4.92
2019-01-20T02:57:09.134Z,3.67
2019-01-20T02:59:45.724Z,4.50
2019-01-20T03:02:22.342Z,5.67
2019-01-20T03:04:59.584Z,5.92
2019-01-20T03:07:36.129Z,6.20
2019-01-20T03:10:12.228Z,5.17
2019-01-20T03:12:48.350Z,5.62
2019-01-20T03:15:25.330Z,4.60
2019-01-20T03:18:02.488Z,6.10
2019-01-20T03:20:38.900Z,5.37
2019-01-20T03:23:14.635Z,6.25
2019-01-20T03:25:50.825Z,5.10
2019-01-20T03:28:27.353Z,4.87
2019-01-20T03:31:03.384Z,5.30
2019-01-20T03:33:39.648Z,4.37
2019-01-20T03:36:16.101Z,5.12
2019-01-20T03:38:52.280Z,4.62
2019-01-20T03:41:28.700Z,3.98
2019-01-20T03:44:05.516Z,4.35
2019-01-20T03:46:42.060Z,5.50
2019-01-20T03:49:18.735Z,5.17
2019-01-20T03:51:55.505Z,5.60
2019-01-20T03:54:31.929Z,4.47
2019-01-20T03:57:08.242Z,4.33
2019-01-20T03:59:44.820Z,5.60
2019-01-20T04:02:26.113Z,5.17
2019-01-20T04:05:02.812Z,5.10
2019-01-20T04:07:38.864Z,5.30
2019-01-20T04:10:15.413Z,4.83
2019-01-20T04:12:51.618Z,4.87
2019-01-20T04:15:27.812Z,5.80
2019-01-20T04:18:04.999Z,5.35
2019-01-20T04:20:42.116Z,6.83
2019-01-20T04:23:19.021Z,4.90
2019-01-20T04:25:56.136Z,4.37
2019-01-20T04:28:33.096Z,4.58
2019-01-20T04:31:09.379Z,5.28
2019-01-20T04:33:45.590Z,5.03
2019-01-20T04:36:22.208Z,5.10
2019-01-20T04:38:59.062Z,6.03
2019-01-20T04:41:35.888Z,5.12
2019-01-20T04:44:12.106Z,4.17
2019-01-20T04:46:48.230Z,5.22
2019-01-20T04:49:24.972Z,4.83
2019-01-20T04:52:01.417Z,3.70
2019-01-20T04:54:38.446Z,4.28
2019-01-20T04:57:16.310Z,4.30
2019-01-20T05:00:12.910Z,4.78
2019-01-20T05:02:49.992Z,5.83
2019-01-20T05:05:26.155Z,4.90
2019-01-20T05:08:02.306Z,4.17
2019-01-20T05:10:38.182Z,6.05
2019-01-20T05:13:14.465Z,3.58
2019-01-20T05:15:51.266Z,5.12
2019-01-20T05:18:28.020Z,4.50
2019-01-20T05:21:03.916Z,4.53
2019-01-20T05:23:39.993Z,3.80
2019-01-20T05:26:16.638Z,4.90
2019-01-20T05:28:53.681Z,4.75
2019-01-20T05:31:29.774Z,4.25
2019-01-20T05:34:06.818Z,4.25
2019-01-20T05:36:43.026Z,5.42
2019-01-20T05:39:19.437Z,4.70
2019-01-20T05:41:55.357Z,5.20
2019-01-20T05:44:31.700Z,5.17
2019-01-20T05:47:08.004Z,4.25
2019-01-20T05:49:44.350Z,6.12
2019-01-20T05:52:20.716Z,5.17
2019-01-20T05:54:57.109Z,4.50
2019-01-20T05:57:34.340Z,4.12
2019-01-20T06:00:29.083Z,6.58
2019-01-20T06:03:05.314Z,5.15
2019-01-20T06:05:41.386Z,4.37
2019-01-20T06:08:17.233Z,4.47
2019-01-20T06:10:52.960Z,4.58
2019-01-20T06:13:29.006Z,4.70
2019-01-20T06:16:04.866Z,5.47
2019-01-20T06:18:41.589Z,4.10
2019-01-20T06:21:17.801Z,6.45
2019-01-20T06:23:53.765Z,4.47
2019-01-20T06:26:30.405Z,4.80
2019-01-20T06:29:07.423Z,4.90
2019-01-20T06:31:44.485Z,6.15
2019-01-20T06:34:20.810Z,5.30
2019-01-20T06:36:56.884Z,4.37
2019-01-20T06:39:33.690Z,4.75
2019-01-20T06:42:10.676Z,4.60
2019-01-20T06:44:47.077Z,5.42
2019-01-20T06:47:23.085Z,4.67
2019-01-20T06:50:00.086Z,6.12
2019-01-20T06:52:36.090Z,4.30
2019-01-20T06:55:13.452Z,5.12
2019-01-20T06:57:49.588Z,4.87
2019-01-20T07:00:26.397Z,5.08
2019-01-20T07:03:03.504Z,3.90
2019-01-20T07:05:39.817Z,5.30
2019-01-20T07:08:16.232Z,4.95
2019-01-20T07:10:52.244Z,4.12
2019-01-20T07:13:29.116Z,4.00
2019-01-20T07:16:05.902Z,5.53
2019-01-20T07:18:42.449Z,6.25
2019-01-20T07:21:18.520Z,5.65
2019-01-20T07:23:55.489Z,4.50
2019-01-20T07:26:32.629Z,6.55
2019-01-20T07:29:09.761Z,5.53
2019-01-20T07:31:46.140Z,5.05
2019-01-20T07:34:22.704Z,5.78
2019-01-20T07:36:59.028Z,11.45
2019-01-20T07:39:37.152Z,5.25
2019-01-20T07:42:13.601Z,7.17
2019-01-20T07:44:49.462Z,10.60
2019-01-20T07:47:25.421Z,5.33
2019-01-20T07:50:01.221Z,5.65
2019-01-20T07:52:38.214Z,5.12
2019-01-20T07:55:14.497Z,7.72
2019-01-20T07:57:50.944Z,5.72
2019-01-20T08:00:27.268Z,6.08
2019-01-20T08:03:03.204Z,6.20
2019-01-20T08:05:38.985Z,4.45
2019-01-20T08:08:15.352Z,5.92
2019-01-20T08:10:51.752Z,5.30
2019-01-20T08:13:28.808Z,4.47
2019-01-20T08:16:05.369Z,5.67
2019-01-20T08:18:41.444Z,7.53
2019-01-20T08:21:17.385Z,38.33
2019-01-20T08:23:53.886Z,11.65
2019-01-20T08:26:30.013Z,10.30
2019-01-20T08:29:07.012Z,12.90
2019-01-20T08:31:42.958Z,12.33
2019-01-20T08:34:18.677Z,12.60
2019-01-20T08:36:55.403Z,13.58
2019-01-20T08:39:31.905Z,11.68
2019-01-20T08:42:08.097Z,13.03
2019-01-20T08:44:46.146Z,14.68
2019-01-20T08:47:33.760Z,9.80
2019-01-20T08:50:13.388Z,18.77
2019-01-20T08:52:49.792Z,12.03
2019-01-20T08:55:26.239Z,14.40
2019-01-20T08:58:01.894Z,12.73
2019-01-20T09:00:38.772Z,13.50
2019-01-20T09:03:15.129Z,13.98
2019-01-20T09:05:51.145Z,11.30
2019-01-20T09:08:27.223Z,13.08
2019-01-20T09:11:02.920Z,14.33
2019-01-20T09:13:39.809Z,14.38
2019-01-20T09:16:16.767Z,12.13
2019-01-20T09:18:53.454Z,11.43
2019-01-20T09:21:29.969Z,10.13
2019-01-20T09:24:06.440Z,14.43
2019-01-20T09:26:43.153Z,9.45
2019-01-20T09:29:20.011Z,10.80
2019-01-20T09:31:57.639Z,13.35
2019-01-20T09:34:33.448Z,7.83
2019-01-20T09:37:09.536Z,13.60
2019-01-20T09:39:45.990Z,10.00
2019-01-20T09:42:22.096Z,9.85
2019-01-20T09:44:58.092Z,14.75
2019-01-20T09:47:34.594Z,7.40
2019-01-20T09:50:10.933Z,8.38
2019-01-20T09:52:47.024Z,8.43
2019-01-20T09:55:23.164Z,9.98
2019-01-20T09:57:59.367Z,10.55
2019-01-20T10:00:35.684Z,9.13
2019-01-20T10:03:16.350Z,9.10
2019-01-20T10:05:50.016Z,8.90
2019-01-20T10:08:26.135Z,11.90
2019-01-20T10:11:02.350Z,8.25
2019-01-20T10:13:38.890Z,12.13
2019-01-20T10:16:15.742Z,15.53
2019-01-20T10:18:52.736Z,15.18
2019-01-20T10:21:29.229Z,12.70
2019-01-20T10:24:05.220Z,15.58
2019-01-20T10:26:40.933Z,13.55
2019-01-20T10:29:17.884Z,16.73
2019-01-20T10:31:54.124Z,15.95
2019-01-20T10:34:31.327Z,18.02
2019-01-20T10:37:07.310Z,17.85
2019-01-20T10:39:43.204Z,18.30
2019-01-20T10:42:19.179Z,21.00
2019-01-20T10:44:55.757Z,21.50
2019-01-20T10:47:32.168Z,17.80
2019-01-20T10:50:09.716Z,17.73
2019-01-20T10:52:45.859Z,17.45
2019-01-20T10:55:22.896Z,24.12
2019-01-20T10:57:59.528Z,18.73
2019-01-20T11:00:37.589Z,25.15
2019-01-20T11:03:13.949Z,27.55
2019-01-20T11:05:50.473Z,54.23
2019-01-20T11:08:27.132Z,38.67
2019-01-20T11:11:03.796Z,41.53
2019-01-20T11:13:40.372Z,34.67
2019-01-20T11:16:17.022Z,53.78
2019-01-20T11:18:53.108Z,35.92
2019-01-20T11:21:29.716Z,36.13
2019-01-20T11:24:06.145Z,31.17
2019-01-20T11:26:42.942Z,42.75
2019-01-20T11:29:19.504Z,28.35
2019-01-20T11:31:55.816Z,42.62
2019-01-20T11:34:31.620Z,34.33
2019-01-20T11:37:08.196Z,29.45
2019-01-20T11:39:44.861Z,34.00
2019-01-20T11:42:21.748Z,36.58
2019-01-20T11:44:58.628Z,35.90
2019-01-20T11:47:41.747Z,44.60
2019-01-20T11:50:13.093Z,36.58
2019-01-20T11:52:50.155Z,39.58
2019-01-20T11:55:26.366Z,41.80
2019-01-20T11:58:03.241Z,33.23
2019-01-20T12:00:40.153Z,31.87
2019-01-20T12:03:16.542Z,35.68
2019-01-20T12:05:52.626Z,25.97
2019-01-20T12:08:30.659Z,37.13
2019-01-20T12:11:07.657Z,39.55
2019-01-20T12:13:44.180Z,31.75
2019-01-20T12:16:20.749Z,35.30
2019-01-20T12:18:56.855Z,39.48
2019-01-20T12:21:32.866Z,27.25
2019-01-20T12:24:09.079Z,38.70
2019-01-20T12:26:45.184Z,33.58
2019-01-20T12:29:21.399Z,34.45
2019-01-20T12:31:57.302Z,32.98
2019-01-20T12:34:33.329Z,35.13
2019-01-20T12:37:09.085Z,28.25
2019-01-20T12:39:46.638Z,34.40
2019-01-20T12:42:22.758Z,33.28
2019-01-20T12:44:59.029Z,34.55
2019-01-20T12:47:35.019Z,26.20
2019-01-20T12:50:13.205Z,27.32
2019-01-20T12:52:49.660Z,28.95
2019-01-20T12:55:26.557Z,28.85
2019-01-20T12:58:03.529Z,27.75
2019-01-20T13:00:39.265Z,29.60
2019-01-20T13:03:15.523Z,26.45
2019-01-20T13:05:51.712Z,29.52
2019-01-20T13:08:29.601Z,28.10
2019-01-20T13:11:06.291Z,30.00
2019-01-20T13:13:42.113Z,26.20
2019-01-20T13:16:18.309Z,28.30
2019-01-20T13:18:54.453Z,25.72
2019-01-20T13:21:30.378Z,23.95
2019-01-20T13:24:06.560Z,25.95
2019-01-20T13:26:43.656Z,23.38
2019-01-20T13:29:20.535Z,21.97
2019-01-20T13:31:56.707Z,26.27
2019-01-20T13:34:33.143Z,28.85
2019-01-20T13:37:09.497Z,24.20
2019-01-20T13:39:45.978Z,21.80
2019-01-20T13:42:23.285Z,24.40
2019-01-20T13:44:59.537Z,22.15
2019-01-20T13:47:35.793Z,14.80
2019-01-20T13:50:14.555Z,28.57
2019-01-20T13:52:50.563Z,21.12
2019-01-20T13:55:27.099Z,19.80
2019-01-20T13:58:04.696Z,27.15
2019-01-20T14:00:40.801Z,22.22
2019-01-20T14:03:17.760Z,21.42
2019-01-20T14:05:53.912Z,23.25
2019-01-20T14:08:31.137Z,19.90
2019-01-20T14:11:07.733Z,21.05
2019-01-20T14:13:44.741Z,22.77
2019-01-20T14:16:20.841Z,23.92
2019-01-20T14:18:56.870Z,19.20
2019-01-20T14:21:32.847Z,20.20
2019-01-20T14:24:09.495Z,15.43
2019-01-20T14:26:46.122Z,21.17
2019-01-20T14:29:22.880Z,16.35
2019-01-20T14:31:59.553Z,19.30
2019-01-20T14:34:35.439Z,21.97
2019-01-20T14:37:12.166Z,20.62
2019-01-20T14:39:48.913Z,20.08
2019-01-20T14:42:25.416Z,12.90
2019-01-20T14:45:01.802Z,14.50
2019-01-20T14:47:37.984Z,19.42
2019-01-20T14:50:17.858Z,37.45
2019-01-20T14:52:53.932Z,632.40
2019-01-20T14:55:30.457Z,333.25
2019-01-20T14:58:06.929Z,257.43
2019-01-20T15:00:43.489Z,306.25
2019-01-20T15:03:19.418Z,294.75
2019-01-20T15:05:55.926Z,314.02
2019-01-20T15:08:32.573Z,295.70
2019-01-20T15:11:08.822Z,297.95
2019-01-20T15:13:44.714Z,277.48
2019-01-20T15:16:21.302Z,258.85
2019-01-20T15:18:57.741Z,256.17
2019-01-20T15:21:33.977Z,257.37
2019-01-20T15:24:10.150Z,255.37
2019-01-20T15:26:46.537Z,244.50
2019-01-20T15:29:22.574Z,231.00
2019-01-20T15:31:59.334Z,221.22
2019-01-20T15:34:35.713Z,216.85
2019-01-20T15:37:11.790Z,204.95
2019-01-20T15:39:48.137Z,208.93
2019-01-20T15:42:23.988Z,203.77
2019-01-20T15:45:00.221Z,182.88
2019-01-20T15:47:36.134Z,192.85
2019-01-20T15:50:16.014Z,182.25
2019-01-20T15:52:52.682Z,168.02
2019-01-20T15:55:29.498Z,182.20
2019-01-20T15:58:06.711Z,166.43
2019-01-20T16:00:43.578Z,161.75
2019-01-20T16:03:19.512Z,162.80
2019-01-20T16:05:55.818Z,164.60
2019-01-20T16:08:32.377Z,165.52
2019-01-20T16:11:08.950Z,152.17
2019-01-20T16:13:45.941Z,159.10
2019-01-20T16:16:22.287Z,147.98
2019-01-20T16:18:58.539Z,152.38
2019-01-20T16:21:34.432Z,157.37
2019-01-20T16:24:12.074Z,142.95
2019-01-20T16:26:48.949Z,146.50
2019-01-20T16:29:26.019Z,145.10
2019-01-20T16:32:02.448Z,143.72
2019-01-20T16:34:38.240Z,142.75
2019-01-20T16:37:15.087Z,153.18
2019-01-20T16:39:51.659Z,133.65
2019-01-20T16:42:27.980Z,144.87
2019-01-20T16:45:05.806Z,142.77
2019-01-20T16:47:42.336Z,122.62
2019-01-20T16:50:20.354Z,125.27
2019-01-20T16:52:56.433Z,124.80
2019-01-20T16:55:33.358Z,125.67
2019-01-20T16:58:09.972Z,110.63
2019-01-20T17:00:47.012Z,125.10
2019-01-20T17:03:23.448Z,121.30
2019-01-20T17:06:01.244Z,109.97
2019-01-20T17:08:37.480Z,117.82
2019-01-20T17:11:13.909Z,111.10
2019-01-20T17:13:50.431Z,104.50
2019-01-20T17:16:26.701Z,99.85
2019-01-20T17:19:03.672Z,92.20
2019-01-20T17:21:39.744Z,104.55
2019-01-20T17:24:16.442Z,104.97
2019-01-20T17:26:53.596Z,91.40
2019-01-20T17:29:29.754Z,95.47
2019-01-20T17:32:06.453Z,89.15
2019-01-20T17:34:43.090Z,100.92
2019-01-20T17:37:20.149Z,95.35
2019-01-20T17:39:56.725Z,92.88
2019-01-20T17:42:33.437Z,88.92
2019-01-20T17:45:11.111Z,83.42
2019-01-20T17:47:47.287Z,92.10
2019-01-20T17:50:28.740Z,77.17
2019-01-20T17:53:08.152Z,81.05
2019-01-20T17:55:44.800Z,82.85
2019-01-20T17:58:21.917Z,80.95
2019-01-20T18:01:00.681Z,79.72
2019-01-20T18:03:37.281Z,83.40
2019-01-20T18:06:13.616Z,73.20
2019-01-20T18:08:50.182Z,75.32
2019-01-20T18:11:26.746Z,50.95
2019-01-20T18:14:03.152Z,45.45
2019-01-20T18:16:38.958Z,20.87
2019-01-20T18:19:15.124Z,19.73
2019-01-20T18:21:51.304Z,19.20
2019-01-20T18:24:28.375Z,19.60
2019-01-20T18:27:05.030Z,16.60
2019-01-20T18:29:41.497Z,17.82
2019-01-20T18:32:17.331Z,20.27
2019-01-20T18:34:53.447Z,18.07
2019-01-20T18:37:29.985Z,20.65
2019-01-20T18:40:10.136Z,18.80
2019-01-20T18:42:46.533Z,18.92
2019-01-20T18:45:29.172Z,15.25
2019-01-20T18:48:06.084Z,17.32
2019-01-20T18:50:42.914Z,18.05
2019-01-20T18:53:19.420Z,16.00
2019-01-20T18:55:55.993Z,18.75
2019-01-20T18:58:32.625Z,17.05
2019-01-20T19:01:11.337Z,19.35
2019-01-20T19:03:48.077Z,17.25
2019-01-20T19:06:24.478Z,16.27
2019-01-20T19:09:01.353Z,15.58
2019-01-20T19:11:37.500Z,15.88
2019-01-20T19:14:13.569Z,17.67
2019-01-20T19:16:49.798Z,16.20
2019-01-20T19:19:26.520Z,16.65
2019-01-20T19:22:03.307Z,20.97
2019-01-20T19:24:39.353Z,19.65
2019-01-20T19:27:16.029Z,14.78
2019-01-20T19:29:52.286Z,15.18
2019-01-20T19:32:29.396Z,14.33
2019-01-20T19:35:06.900Z,14.95
2019-01-20T19:37:43.774Z,18.90
2019-01-20T19:40:39.254Z,17.92
2019-01-20T19:43:15.368Z,16.90
2019-01-20T19:45:51.526Z,15.53
2019-01-20T19:48:28.620Z,16.70
2019-01-20T19:51:04.709Z,15.55
2019-01-20T19:53:41.133Z,19.40
2019-01-20T19:56:17.209Z,17.55
2019-01-20T19:58:53.817Z,14.13
2019-01-20T20:01:30.956Z,16.12
2019-01-20T20:04:07.421Z,14.10
2019-01-20T20:06:44.028Z,16.40
2019-01-20T20:09:20.121Z,13.55
2019-01-20T20:11:56.881Z,13.53
2019-01-20T20:14:33.211Z,18.23
2019-01-20T20:17:08.893Z,14.18
2019-01-20T20:19:44.609Z,13.50
2019-01-20T20:22:21.291Z,14.45
2019-01-20T20:24:57.918Z,15.88
2019-01-20T20:27:34.144Z,15.40
2019-01-20T20:30:13.648Z,13.03
2019-01-20T20:32:49.336Z,15.20
2019-01-20T20:35:25.721Z,12.20
2019-01-20T20:38:01.862Z,11.97
2019-01-20T20:40:38.449Z,13.48
2019-01-20T20:43:14.564Z,13.00
2019-01-20T20:45:51.168Z,12.05
2019-01-20T20:48:27.693Z,12.78
2019-01-20T20:51:04.201Z,13.62
2019-01-20T20:53:40.168Z,12.37
2019-01-20T20:56:17.001Z,12.20
2019-01-20T20:58:53.116Z,14.10
2019-01-20T21:01:29.770Z,15.90
2019-01-20T21:04:06.397Z,12.47
2019-01-20T21:06:42.605Z,14.28
2019-01-20T21:09:18.970Z,13.20
2019-01-20T21:11:55.701Z,12.37
2019-01-20T21:14:32.295Z,13.25
2019-01-20T21:17:08.163Z,15.28
2019-01-20T21:19:43.916Z,13.32
2019-01-20T21:22:21.386Z,12.43
2019-01-20T21:24:57.562Z,13.80
2019-01-20T21:27:34.461Z,13.20
2019-01-20T21:30:24.321Z,12.75
2019-01-20T21:33:01.597Z,11.68
2019-01-20T21:35:38.164Z,13.58
2019-01-20T21:38:14.669Z,14.93
2019-01-20T21:40:50.701Z,10.68
2019-01-20T21:43:27.564Z,11.48
2019-01-20T21:46:04.151Z,13.37
2019-01-20T21:48:40.453Z,12.05
2019-01-20T21:51:17.012Z,12.33
2019-01-20T21:54:05.049Z,10.85
2019-01-20T21:56:41.716Z,13.53
2019-01-20T21:59:17.920Z,12.20
2019-01-20T22:01:54.066Z,11.60
2019-01-20T22:04:30.497Z,13.15
2019-01-20T22:07:06.608Z,10.28
2019-01-20T22:09:42.470Z,11.30
2019-01-20T22:12:19.535Z,11.10
2019-01-20T22:14:55.597Z,9.43
2019-01-20T22:17:31.708Z,12.93
2019-01-20T22:20:11.066Z,11.50
2019-01-20T22:22:47.824Z,9.03
2019-01-20T22:25:24.001Z,11.15
2019-01-20T22:28:00.944Z,11.35
2019-01-20T22:30:37.350Z,9.98
2019-01-20T22:33:14.511Z,9.25
2019-01-20T22:35:50.563Z,9.90
2019-01-20T22:38:27.067Z,12.45
2019-01-20T22:41:03.872Z,10.32
2019-01-20T22:43:40.024Z,11.57
2019-01-20T22:46:16.523Z,10.13
2019-01-20T22:48:52.384Z,11.18
2019-01-20T22:51:28.489Z,8.48
2019-01-20T22:54:04.563Z,10.08
2019-01-20T22:56:41.532Z,11.15
2019-01-20T22:59:18.577Z,10.75
2019-01-20T23:01:54.658Z,9.70
2019-01-20T23:04:30.618Z,10.95
2019-01-20T23:07:07.460Z,8.85
2019-01-20T23:09:44.008Z,9.90
2019-01-20T23:12:20.288Z,10.72
2019-01-20T23:14:56.578Z,9.93
2019-01-20T23:17:32.864Z,9.78
2019-01-20T23:20:11.028Z,9.57
2019-01-20T23:22:47.257Z,11.48
2019-01-20T23:25:24.005Z,10.32
2019-01-20T23:28:00.684Z,9.78
2019-01-20T23:30:37.605Z,10.05
2019-01-20T23:33:14.629Z,9.70
2019-01-20T23:35:51.541Z,10.63
2019-01-20T23:38:27.978Z,9.28
2019-01-20T23:41:04.426Z,8.68
2019-01-20T23:43:40.824Z,9.80
2019-01-20T23:46:17.066Z,8.35
2019-01-20T23:48:53.168Z,10.03
2019-01-20T23:51:30.317Z,8.53
2019-01-20T23:54:07.297Z,8.48
2019-01-20T23:56:44.940Z,8.78
2019-01-20T23:59:20.933Z,8.23
